createdAt,value
2023-01-13T00:00:31.365Z,96175.31
2023-01-13T00:02:59.630Z,96166.78
2023-01-13T00:05:28.337Z,96168.22
2023-01-13T00:07:57.907Z,96158.84
2023-01-13T00:10:26.071Z,96153.91
2023-01-13T00:12:54.245Z,96148.94
2023-01-13T00:15:22.504Z,96144.97
2023-01-13T00:17:50.699Z,96140.03
2023-01-13T00:20:19.178Z,96137.22
2023-01-13T00:22:47.406Z,96136.69
2023-01-13T00:25:17.500Z,96138.53
2023-01-13T00:27:45.687Z,96137.53
2023-01-13T00:30:14.474Z,96142.31
2023-01-13T00:32:42.631Z,96141.47
2023-01-13T00:35:10.820Z,96136.66
2023-01-13T00:37:39.378Z,96132.50
2023-01-13T00:40:08.904Z,96125.59
2023-01-13T00:42:56.210Z,96119.34
2023-01-13T00:45:24.533Z,96122.94
2023-01-13T00:47:52.733Z,96116.00
2023-01-13T00:50:20.897Z,96118.91
2023-01-13T00:52:49.059Z,96120.16
2023-01-13T00:55:17.433Z,96117.34
2023-01-13T00:57:46.975Z,96115.88
2023-01-13T01:00:16.002Z,96112.75
2023-01-13T01:02:44.172Z,96112.75
2023-01-13T01:05:12.988Z,96109.41
2023-01-13T01:07:41.131Z,96112.38
2023-01-13T01:10:10.463Z,96115.38
2023-01-13T01:12:38.678Z,96115.66
2023-01-13T01:15:10.206Z,96118.34
2023-01-13T01:17:38.453Z,96126.25
2023-01-13T01:20:07.425Z,96130.09
2023-01-13T01:22:35.613Z,96122.66
2023-01-13T01:25:03.842Z,96107.56
2023-01-13T01:27:32.049Z,96110.22
2023-01-13T01:30:00.261Z,96101.41
2023-01-13T01:32:29.790Z,96102.63
2023-01-13T01:34:57.965Z,96092.50
2023-01-13T01:37:26.185Z,96092.84
2023-01-13T01:39:54.481Z,96093.94
2023-01-13T01:42:41.664Z,96099.91
2023-01-13T01:45:16.934Z,96084.94
2023-01-13T01:47:47.521Z,96089.66
2023-01-13T01:50:15.840Z,96085.56
2023-01-13T01:52:45.731Z,96081.75
2023-01-13T01:55:16.085Z,96077.44
2023-01-13T01:57:48.028Z,96072.16
2023-01-13T02:00:16.566Z,96081.06
2023-01-13T02:02:47.869Z,96072.78
2023-01-13T02:05:16.656Z,96073.72
2023-01-13T02:07:47.457Z,96065.97
2023-01-13T02:10:16.385Z,96070.91
2023-01-13T02:12:46.236Z,96067.28
2023-01-13T02:15:16.906Z,96062.44
2023-01-13T02:17:55.414Z,96062.59
2023-01-13T02:20:39.971Z,96062.91
2023-01-13T02:23:57.840Z,96060.47
2023-01-13T02:26:49.797Z,96054.31
2023-01-13T02:29:49.884Z,96049.91
2023-01-13T02:32:21.637Z,96053.56
2023-01-13T02:34:56.271Z,96053.41
2023-01-13T02:37:29.777Z,96048.47
2023-01-13T02:40:00.854Z,96045.41
2023-01-13T02:42:51.381Z,96047.34
2023-01-13T02:45:24.461Z,96045.78
2023-01-13T02:47:55.818Z,96038.50
2023-01-13T02:50:26.812Z,96033.72
2023-01-13T02:52:58.329Z,96031.13
2023-01-13T02:55:30.317Z,96026.72
2023-01-13T02:57:59.618Z,96033.91
2023-01-13T03:00:29.771Z,96036.91
2023-01-13T03:02:58.223Z,96033.00
2023-01-13T03:05:26.762Z,96035.41
2023-01-13T03:08:05.530Z,96026.72
2023-01-13T03:10:52.561Z,96026.91
2023-01-13T03:13:54.223Z,96029.19
2023-01-13T03:16:30.670Z,96020.25
2023-01-13T03:19:10.224Z,96018.78
2023-01-13T03:21:41.760Z,96023.94
2023-01-13T03:24:14.456Z,96016.38
2023-01-13T03:26:46.585Z,96006.63
2023-01-13T03:29:20.213Z,96015.81
2023-01-13T03:31:56.880Z,96019.88
2023-01-13T03:34:30.311Z,95995.47
2023-01-13T03:37:03.350Z,95995.72
2023-01-13T03:39:36.012Z,96001.59
2023-01-13T03:42:06.845Z,96008.03
2023-01-13T03:44:36.712Z,96006.72
2023-01-13T03:47:11.819Z,96002.91
2023-01-13T03:49:43.312Z,96000.72
2023-01-13T03:52:14.824Z,95998.19
2023-01-13T03:54:47.617Z,96004.63
2023-01-13T03:57:17.210Z,95993.56
2023-01-13T03:59:49.767Z,95990.16
2023-01-13T04:02:23.595Z,95996.03
2023-01-13T04:04:55.351Z,95989.00
2023-01-13T04:07:30.817Z,95999.09
2023-01-13T04:10:02.023Z,95988.59
2023-01-13T04:12:52.176Z,95983.69
2023-01-13T04:15:24.518Z,95982.31
2023-01-13T04:17:54.760Z,95984.81
2023-01-13T04:20:23.020Z,95973.63
2023-01-13T04:22:51.239Z,95977.00
2023-01-13T04:25:19.531Z,95989.78
2023-01-13T04:27:47.804Z,95983.31
2023-01-13T04:30:16.454Z,95982.31
2023-01-13T04:32:44.716Z,95991.16
2023-01-13T04:35:14.460Z,95985.16
2023-01-13T04:37:42.693Z,95976.38
2023-01-13T04:40:11.918Z,95980.53
2023-01-13T04:42:40.176Z,95984.69
2023-01-13T04:45:10.662Z,95980.06
2023-01-13T04:47:38.962Z,95974.59
2023-01-13T04:50:07.807Z,95969.13
2023-01-13T04:52:37.503Z,95978.00
2023-01-13T04:55:06.663Z,95970.56
2023-01-13T04:57:35.285Z,95970.41
2023-01-13T05:00:03.768Z,95973.41
2023-01-13T05:02:32.087Z,95973.81
2023-01-13T05:05:01.063Z,95971.88
2023-01-13T05:07:29.508Z,95976.19
2023-01-13T05:09:59.538Z,95981.38
2023-01-13T05:12:45.394Z,95976.19
2023-01-13T05:15:32.474Z,95971.59
2023-01-13T05:18:01.287Z,95983.88
2023-01-13T05:20:29.547Z,95978.63
2023-01-13T05:23:15.508Z,95981.53
2023-01-13T05:25:45.194Z,95974.19
2023-01-13T05:28:13.465Z,95970.88
2023-01-13T05:30:43.467Z,95976.41
2023-01-13T05:33:12.389Z,95971.44
2023-01-13T05:35:41.485Z,95973.06
2023-01-13T05:38:10.058Z,95960.16
2023-01-13T05:40:58.145Z,95969.59
2023-01-13T05:43:28.987Z,95969.31
2023-01-13T05:45:59.708Z,95970.94
2023-01-13T05:48:30.061Z,95979.16
2023-01-13T05:50:58.555Z,95978.28
2023-01-13T05:53:27.049Z,95967.94
2023-01-13T05:55:55.580Z,95972.28
2023-01-13T05:58:25.212Z,95968.34
2023-01-13T06:01:00.984Z,95967.84
2023-01-13T06:03:29.303Z,95962.16
2023-01-13T06:05:59.556Z,95968.78
2023-01-13T06:08:27.981Z,95973.22
2023-01-13T06:10:56.275Z,95972.16
2023-01-13T06:13:25.352Z,95960.81
2023-01-13T06:15:58.973Z,95968.13
2023-01-13T06:18:27.875Z,95972.34
2023-01-13T06:20:56.542Z,95976.31
2023-01-13T06:23:25.059Z,95973.88
2023-01-13T06:25:57.283Z,95968.13
2023-01-13T06:28:25.767Z,95971.44
2023-01-13T06:30:58.767Z,95969.59
2023-01-13T06:33:29.955Z,95968.56
2023-01-13T06:36:00.524Z,95974.63
2023-01-13T06:38:30.210Z,95978.47
2023-01-13T06:40:58.709Z,95958.88
2023-01-13T06:43:26.054Z,95960.09
2023-01-13T06:45:55.933Z,95967.44
2023-01-13T06:48:27.889Z,95978.97
2023-01-13T06:50:56.226Z,95981.47
2023-01-13T06:53:24.490Z,95984.38
2023-01-13T06:55:52.773Z,95990.94
2023-01-13T06:58:21.075Z,95986.91
2023-01-13T07:00:51.492Z,95985.13
2023-01-13T07:03:20.181Z,95990.97
2023-01-13T07:05:54.892Z,95994.03
2023-01-13T07:08:23.931Z,95989.91
2023-01-13T07:10:52.929Z,95987.50
2023-01-13T07:13:39.099Z,95991.09
2023-01-13T07:16:08.830Z,95983.44
2023-01-13T07:18:38.015Z,95989.06
2023-01-13T07:21:08.915Z,95995.31
2023-01-13T07:23:38.488Z,95992.19
2023-01-13T07:26:07.663Z,95981.88
2023-01-13T07:28:36.265Z,95979.28
2023-01-13T07:31:04.815Z,95979.28
2023-01-13T07:33:33.413Z,95983.28
2023-01-13T07:36:03.467Z,95984.00
2023-01-13T07:38:34.018Z,95984.25
2023-01-13T07:41:23.942Z,95985.00
2023-01-13T07:43:51.847Z,95974.38
2023-01-13T07:46:20.423Z,95968.53
2023-01-13T07:48:49.119Z,95974.53
2023-01-13T07:51:17.688Z,95981.94
2023-01-13T07:53:47.407Z,95981.25
2023-01-13T07:56:15.741Z,95981.34
2023-01-13T07:58:44.969Z,95976.06
2023-01-13T08:01:16.683Z,95997.03
2023-01-13T08:03:45.217Z,95982.72
2023-01-13T08:06:13.649Z,95989.34
2023-01-13T08:08:41.923Z,95991.41
2023-01-13T08:11:11.545Z,95992.28
2023-01-13T08:13:39.897Z,95998.16
2023-01-13T08:16:10.059Z,95997.84
2023-01-13T08:18:39.177Z,95989.19
2023-01-13T08:21:09.146Z,95989.66
2023-01-13T08:23:37.729Z,95983.69
2023-01-13T08:26:07.876Z,95985.44
2023-01-13T08:28:37.586Z,95982.13
2023-01-13T08:31:07.597Z,95985.50
2023-01-13T08:33:36.117Z,95986.81
2023-01-13T08:36:09.923Z,95982.31
2023-01-13T08:38:38.787Z,95984.34
2023-01-13T08:41:11.075Z,95965.81
2023-01-13T08:43:40.709Z,95997.25
2023-01-13T08:46:09.118Z,95992.56
2023-01-13T08:48:37.526Z,96006.47
2023-01-13T08:51:07.036Z,95991.75
2023-01-13T08:53:35.489Z,95991.38
2023-01-13T08:56:08.421Z,96007.47
2023-01-13T08:58:36.715Z,96007.00
2023-01-13T09:01:08.487Z,96011.75
2023-01-13T09:03:36.906Z,96007.13
2023-01-13T09:06:05.922Z,96011.13
2023-01-13T09:08:34.354Z,96003.63
2023-01-13T09:11:22.613Z,95998.22
2023-01-13T09:13:49.899Z,95999.81
2023-01-13T09:16:19.590Z,95999.41
2023-01-13T09:18:48.336Z,95995.13
2023-01-13T09:21:16.643Z,96011.13
2023-01-13T09:23:44.905Z,96005.66
2023-01-13T09:26:13.980Z,96024.78
2023-01-13T09:28:42.226Z,96007.91
2023-01-13T09:31:10.520Z,96010.78
2023-01-13T09:33:58.024Z,96021.66
2023-01-13T09:36:26.397Z,96024.16
2023-01-13T09:38:54.650Z,96004.09
2023-01-13T09:41:43.623Z,96026.97
2023-01-13T09:44:15.373Z,96023.22
2023-01-13T09:46:47.527Z,96028.25
2023-01-13T09:49:20.856Z,96025.81
2023-01-13T09:51:53.940Z,96003.63
2023-01-13T09:54:32.053Z,96009.81
2023-01-13T09:57:00.594Z,96009.47
2023-01-13T09:59:30.702Z,95997.69
2023-01-13T10:02:04.165Z,96002.81
2023-01-13T10:04:33.833Z,96021.03
2023-01-13T10:07:05.092Z,96016.47
2023-01-13T10:09:35.694Z,95999.88
2023-01-13T10:12:21.119Z,96002.03
2023-01-13T10:14:53.135Z,95990.53
2023-01-13T10:17:27.281Z,95985.91
2023-01-13T10:20:02.902Z,95988.16
2023-01-13T10:22:51.889Z,96002.28
2023-01-13T10:25:42.120Z,95995.81
2023-01-13T10:28:11.880Z,95993.34
2023-01-13T10:30:42.361Z,95986.03
2023-01-13T10:33:12.658Z,95971.63
2023-01-13T10:35:59.959Z,95973.84
2023-01-13T10:38:31.262Z,95983.41
2023-01-13T10:41:01.001Z,95977.38
2023-01-13T10:43:30.602Z,95974.28
2023-01-13T10:46:02.482Z,95964.22
2023-01-13T10:48:41.748Z,95956.88
2023-01-13T10:51:21.407Z,95944.09
2023-01-13T10:53:59.255Z,95930.31
2023-01-13T10:56:29.758Z,95950.16
2023-01-13T10:59:15.582Z,95955.94
2023-01-13T11:01:45.613Z,95954.13
2023-01-13T11:04:27.819Z,95928.13
2023-01-13T11:06:58.132Z,95932.72
2023-01-13T11:09:27.189Z,95948.19
2023-01-13T11:11:56.537Z,95921.06
2023-01-13T11:14:36.793Z,95928.72
2023-01-13T11:17:10.758Z,95925.94
2023-01-13T11:19:44.567Z,95916.66
2023-01-13T11:22:19.004Z,95919.66
2023-01-13T11:24:51.755Z,95916.66
2023-01-13T11:27:23.101Z,95899.78
2023-01-13T11:30:00.653Z,95917.81
2023-01-13T11:32:31.968Z,95920.41
2023-01-13T11:35:03.055Z,95921.97
2023-01-13T11:37:34.433Z,95916.41
2023-01-13T11:40:06.709Z,95905.13
2023-01-13T11:42:39.689Z,95922.69
2023-01-13T11:45:17.805Z,95927.69
2023-01-13T11:47:48.164Z,95929.66
2023-01-13T11:50:19.913Z,95923.22
2023-01-13T11:53:06.174Z,95925.44
2023-01-13T11:55:42.344Z,95931.78
2023-01-13T11:58:45.591Z,95912.44
2023-01-13T12:01:30.451Z,95927.88
2023-01-13T12:04:13.341Z,95920.66
2023-01-13T12:06:43.525Z,95925.44
2023-01-13T12:09:30.565Z,95934.28
2023-01-13T12:12:20.664Z,95916.28
2023-01-13T12:15:03.688Z,95913.34
2023-01-13T12:17:36.156Z,95916.66
2023-01-13T12:20:17.825Z,95876.72
2023-01-13T12:22:47.753Z,95923.22
2023-01-13T12:25:22.112Z,95919.25
2023-01-13T12:27:53.762Z,95936.97
2023-01-13T12:30:25.336Z,95929.81
2023-01-13T12:35:42.517Z,95933.53
2023-01-13T12:38:15.029Z,95931.97
2023-01-13T12:40:52.220Z,95922.53
2023-01-13T12:43:39.606Z,95945.03
2023-01-13T12:46:36.635Z,95951.56
2023-01-13T12:49:08.336Z,95935.97
2023-01-13T12:51:38.085Z,95927.41
2023-01-13T12:54:35.089Z,95953.81
2023-01-13T12:57:16.073Z,95937.41
2023-01-13T12:59:49.930Z,95938.75
2023-01-13T13:02:36.414Z,95947.06
2023-01-13T13:05:43.107Z,95949.84
2023-01-13T13:08:19.639Z,95957.50
2023-01-13T13:11:00.183Z,95969.50
2023-01-13T13:13:47.350Z,95948.03
2023-01-13T13:16:37.616Z,95928.69
2023-01-13T13:19:44.201Z,95960.88
2023-01-13T13:22:37.846Z,95970.69
2023-01-13T13:25:22.130Z,95972.94
2023-01-13T13:28:09.754Z,95949.19
2023-01-13T13:30:40.851Z,95960.81
2023-01-13T13:33:34.617Z,95963.00
2023-01-13T13:36:12.892Z,95953.53
2023-01-13T13:39:13.502Z,95961.38
2023-01-13T13:42:01.664Z,95965.56
2023-01-13T13:44:49.890Z,95966.13
2023-01-13T13:47:19.553Z,95972.97
2023-01-13T13:49:52.706Z,95957.06
2023-01-13T13:52:23.235Z,95968.72
2023-01-13T13:54:53.699Z,95966.38
2023-01-13T13:57:24.604Z,95982.13
2023-01-13T13:59:55.607Z,95996.22
2023-01-13T14:02:30.118Z,96038.28
2023-01-13T14:05:09.217Z,96128.19
2023-01-13T14:07:44.262Z,96162.09
2023-01-13T14:10:19.852Z,96169.00
2023-01-13T14:12:48.341Z,96190.13
2023-01-13T14:15:28.105Z,96203.75
2023-01-13T14:17:58.117Z,96210.28
2023-01-13T14:20:28.096Z,96218.72
2023-01-13T14:23:00.685Z,96213.22
2023-01-13T14:25:31.561Z,96226.56
2023-01-13T14:28:01.954Z,96222.84
2023-01-13T14:30:30.555Z,96224.63
2023-01-13T14:33:01.065Z,96221.00
2023-01-13T14:35:30.170Z,96223.97
2023-01-13T14:38:05.034Z,96210.63
2023-01-13T14:40:46.984Z,96223.13
2023-01-13T14:43:17.282Z,96219.31
2023-01-13T14:45:56.756Z,96224.16
2023-01-13T14:48:32.331Z,96226.44
2023-01-13T14:51:02.429Z,96207.72
2023-01-13T14:53:37.822Z,96214.50
2023-01-13T14:56:55.323Z,96214.03
2023-01-13T14:59:42.773Z,96209.75
2023-01-13T15:02:47.592Z,96213.63
2023-01-13T15:05:38.106Z,96218.28
2023-01-13T15:08:18.299Z,96214.22
2023-01-13T15:10:48.799Z,96211.03
2023-01-13T15:13:26.510Z,96222.41
2023-01-13T15:15:56.797Z,96224.00
2023-01-13T15:18:25.603Z,96227.56
2023-01-13T15:20:56.187Z,96233.72
2023-01-13T15:23:24.233Z,96222.72
2023-01-13T15:25:52.429Z,96231.88
2023-01-13T15:28:22.187Z,96240.72
2023-01-13T15:30:51.719Z,96244.88
2023-01-13T15:33:20.769Z,96252.19
2023-01-13T15:35:50.483Z,96268.75
2023-01-13T15:38:21.371Z,96270.47
2023-01-13T15:40:51.008Z,96288.31
2023-01-13T15:43:38.419Z,96284.13
2023-01-13T15:46:29.343Z,96280.63
2023-01-13T15:48:58.541Z,96278.09
2023-01-13T15:51:27.067Z,96289.00
2023-01-13T15:54:00.603Z,96282.34
2023-01-13T15:56:29.280Z,96293.03
2023-01-13T15:58:57.596Z,96298.06
2023-01-13T16:01:25.885Z,96302.09
2023-01-13T16:03:55.905Z,96300.31
2023-01-13T16:06:27.714Z,96301.28
2023-01-13T16:08:57.362Z,96305.94
2023-01-13T16:11:25.778Z,96307.56
2023-01-13T16:13:54.135Z,96304.31
2023-01-13T16:16:24.244Z,96317.41
2023-01-13T16:18:53.516Z,96309.91
2023-01-13T16:21:22.564Z,96313.22
2023-01-13T16:23:51.997Z,96315.41
2023-01-13T16:26:23.476Z,96328.16
2023-01-13T16:28:53.199Z,96334.41
2023-01-13T16:31:26.739Z,96334.66
2023-01-13T16:33:55.113Z,96336.53
2023-01-13T16:36:23.496Z,96337.34
2023-01-13T16:38:53.296Z,96339.69
2023-01-13T16:41:24.834Z,96341.97
2023-01-13T16:43:53.598Z,96343.44
2023-01-13T16:46:24.659Z,96353.63
2023-01-13T16:48:54.598Z,96357.66
2023-01-13T16:51:24.622Z,96369.59
2023-01-13T16:53:53.110Z,96362.81
2023-01-13T16:56:27.720Z,96363.09
2023-01-13T16:58:57.901Z,96374.59
2023-01-13T17:01:28.060Z,96381.56
2023-01-13T17:03:57.288Z,96371.38
2023-01-13T17:06:28.907Z,96366.56
2023-01-13T17:09:01.624Z,96369.09
2023-01-13T17:11:31.436Z,96358.72
2023-01-13T17:13:59.692Z,96362.97
2023-01-13T17:16:28.332Z,96377.50
2023-01-13T17:18:56.656Z,96384.03
2023-01-13T17:21:24.941Z,96381.97
2023-01-13T17:23:53.233Z,96385.03
2023-01-13T17:26:29.928Z,96378.00
2023-01-13T17:29:00.287Z,96390.59
2023-01-13T17:31:29.496Z,96392.75
2023-01-13T17:33:57.927Z,96382.69
2023-01-13T17:36:26.159Z,96385.75
2023-01-13T17:38:55.043Z,96398.31
2023-01-13T17:41:23.352Z,96389.94
2023-01-13T17:43:51.822Z,96402.81
2023-01-13T17:46:23.075Z,96403.59
2023-01-13T17:48:52.750Z,96408.06
2023-01-13T17:51:22.578Z,96410.25
2023-01-13T17:53:50.978Z,96423.94
2023-01-13T17:56:19.623Z,96418.00
2023-01-13T17:58:47.895Z,96429.69
2023-01-13T18:01:19.275Z,96428.66
2023-01-13T18:03:49.399Z,96444.25
2023-01-13T18:06:18.912Z,96432.28
2023-01-13T18:08:49.096Z,96439.28
2023-01-13T18:11:19.739Z,96428.84
2023-01-13T18:13:47.936Z,96428.91
2023-01-13T18:16:18.236Z,96433.31
2023-01-13T18:18:49.484Z,96421.75
2023-01-13T18:21:52.168Z,96426.53
2023-01-13T18:24:38.075Z,96431.66
2023-01-13T18:27:22.997Z,96433.72
2023-01-13T18:29:52.930Z,96431.78
2023-01-13T18:32:21.764Z,96431.47
2023-01-13T18:35:01.628Z,96440.66
2023-01-13T18:37:35.789Z,96432.97
2023-01-13T18:40:04.991Z,96445.69
2023-01-13T18:42:50.971Z,96444.56
2023-01-13T18:45:20.052Z,96448.28
2023-01-13T18:47:48.351Z,96458.59
2023-01-13T18:50:18.824Z,96455.25
2023-01-13T18:52:47.266Z,96466.81
2023-01-13T18:55:15.653Z,96468.50
2023-01-13T18:57:43.943Z,96472.78
2023-01-13T19:00:14.236Z,96473.53
2023-01-13T19:02:42.620Z,96471.97
2023-01-13T19:05:11.225Z,96465.25
2023-01-13T19:07:41.069Z,96461.41
2023-01-13T19:10:10.481Z,96465.28
2023-01-13T19:12:38.811Z,96458.34
2023-01-13T19:15:08.831Z,96467.56
2023-01-13T19:17:37.308Z,96471.41
2023-01-13T19:20:06.311Z,96468.75
2023-01-13T19:22:36.068Z,96473.53
2023-01-13T19:25:06.706Z,96491.56
2023-01-13T19:27:34.826Z,96492.13
2023-01-13T19:30:03.925Z,96489.38
2023-01-13T19:32:33.924Z,96487.91
2023-01-13T19:35:02.155Z,96489.75
2023-01-13T19:37:31.589Z,96489.44
2023-01-13T19:40:00.424Z,96487.72
2023-01-13T19:42:47.787Z,96492.16
2023-01-13T19:45:30.696Z,96511.53
2023-01-13T19:48:01.858Z,96516.22
2023-01-13T19:50:30.312Z,96513.78
2023-01-13T19:52:58.792Z,96518.66
2023-01-13T19:55:28.083Z,96524.00
2023-01-13T19:57:57.703Z,96525.66
2023-01-13T20:00:26.183Z,96527.34
2023-01-13T20:02:56.699Z,96537.69
2023-01-13T20:05:26.216Z,96538.31
2023-01-13T20:07:54.542Z,96537.88
2023-01-13T20:10:23.765Z,96550.00
2023-01-13T20:12:52.162Z,96549.88
2023-01-13T20:15:21.782Z,96547.88
2023-01-13T20:17:50.069Z,96556.25
2023-01-13T20:20:20.557Z,96554.28
2023-01-13T20:22:50.269Z,96559.41
2023-01-13T20:25:19.023Z,96560.44
2023-01-13T20:27:48.245Z,96570.19
2023-01-13T20:30:16.985Z,96576.31
2023-01-13T20:32:46.611Z,96568.41
2023-01-13T20:35:14.875Z,96565.69
2023-01-13T20:37:43.606Z,96563.13
2023-01-13T20:40:15.219Z,96556.22
2023-01-13T20:42:45.092Z,96568.50
2023-01-13T20:45:17.207Z,96575.03
2023-01-13T20:47:47.314Z,96574.72
2023-01-13T20:50:16.200Z,96575.97
2023-01-13T20:52:44.619Z,96592.22
2023-01-13T20:55:13.425Z,96591.38
2023-01-13T20:57:42.173Z,96582.44
2023-01-13T21:00:11.533Z,96596.13
2023-01-13T21:02:41.532Z,96588.75
2023-01-13T21:05:11.191Z,96603.00
2023-01-13T21:07:39.485Z,96613.97
2023-01-13T21:10:11.273Z,96613.31
2023-01-13T21:12:57.494Z,96613.44
2023-01-13T21:15:27.281Z,96611.72
2023-01-13T21:18:13.195Z,96621.75
2023-01-13T21:20:43.009Z,96639.06
2023-01-13T21:23:11.903Z,96620.06
2023-01-13T21:25:40.625Z,96627.66
2023-01-13T21:28:11.537Z,96632.56
2023-01-13T21:30:40.428Z,96630.63
2023-01-13T21:33:08.939Z,96637.53
2023-01-13T21:35:39.537Z,96650.50
2023-01-13T21:38:10.071Z,96648.69
2023-01-13T21:40:38.240Z,96656.16
2023-01-13T21:43:24.228Z,96653.06
2023-01-13T21:46:10.200Z,96662.22
2023-01-13T21:48:38.469Z,96668.31
2023-01-13T21:51:06.943Z,96677.09
2023-01-13T21:53:36.604Z,96674.19
2023-01-13T21:56:05.193Z,96677.94
2023-01-13T21:58:33.439Z,96677.22
2023-01-13T22:01:02.516Z,96674.22
2023-01-13T22:03:50.888Z,96678.66
2023-01-13T22:06:19.142Z,96681.50
2023-01-13T22:08:48.848Z,96682.06
2023-01-13T22:11:17.134Z,96682.78
2023-01-13T22:14:11.567Z,96688.56
2023-01-13T22:16:42.203Z,96691.16
2023-01-13T22:19:10.718Z,96687.00
2023-01-13T22:21:39.512Z,96694.34
2023-01-13T22:24:09.927Z,96699.47
2023-01-13T22:26:38.151Z,96708.50
2023-01-13T22:29:06.479Z,96705.84
2023-01-13T22:31:35.187Z,96713.66
2023-01-13T22:34:03.541Z,96716.38
2023-01-13T22:36:31.802Z,96720.63
2023-01-13T22:39:01.235Z,96725.03
2023-01-13T22:41:30.872Z,96728.69
2023-01-13T22:43:59.126Z,96727.84
2023-01-13T22:46:27.408Z,96725.56
2023-01-13T22:48:55.949Z,96730.38
2023-01-13T22:51:26.062Z,96723.06
2023-01-13T22:53:54.864Z,96723.03
2023-01-13T22:56:24.824Z,96734.09
2023-01-13T22:58:58.709Z,96723.03
2023-01-13T23:01:28.132Z,96736.19
2023-01-13T23:03:56.528Z,96730.03
2023-01-13T23:06:26.529Z,96744.06
2023-01-13T23:08:55.090Z,96742.44
2023-01-13T23:11:25.318Z,96745.25
2023-01-13T23:13:59.712Z,96749.78
2023-01-13T23:16:28.847Z,96757.38
2023-01-13T23:18:57.369Z,96763.63
2023-01-13T23:21:27.436Z,96765.09
2023-01-13T23:23:58.445Z,96778.25
2023-01-13T23:26:27.319Z,96765.59
2023-01-13T23:29:00.744Z,96769.53
2023-01-13T23:31:29.500Z,96758.38
2023-01-13T23:33:57.805Z,96755.09
2023-01-13T23:36:27.381Z,96757.94
2023-01-13T23:38:56.899Z,96758.31
2023-01-13T23:41:26.221Z,96763.53
2023-01-13T23:43:57.654Z,96763.56
2023-01-13T23:46:28.664Z,96753.78
2023-01-13T23:48:57.022Z,96766.75
2023-01-13T23:51:26.340Z,96764.59
2023-01-13T23:53:55.198Z,96762.97
2023-01-13T23:56:24.796Z,96747.94
2023-01-13T23:58:53.354Z,96750.47
